Time;durP1;ratioP1;P1;durP2;ratioP2;P2;SDS_P1;SDS_P2;PMS_P1;PMS_P2;Temp;Humidity;BMP_temperature;BMP_pressure;BME280_temperature;BME280_humidity;BME280_pressure;Samples;Min_cycle;Max_cycle;Signal;HPM_P1;HPM_P2
2022/03/13 00:00:15;;;;;;;5.13;1.67;;;23.00;69.70;;;;;;5042975;28;20176;-80
2022/03/13 00:02:46;;;;;;;3.63;1.57;;;23.20;70.40;;;;;;5048408;28;20612;-77
2022/03/13 00:05:17;;;;;;;4.93;1.33;;;23.40;69.00;;;;;;5048210;28;20190;-78
2022/03/13 00:07:46;;;;;;;5.93;1.70;;;23.60;68.50;;;;;;5044731;28;20834;-76
2022/03/13 00:10:19;;;;;;;3.53;1.10;;;23.70;67.00;;;;;;5040532;28;20181;-74
2022/03/13 00:12:48;;;;;;;4.20;1.40;;;23.50;66.10;;;;;;5037227;28;20176;-76
2022/03/13 00:15:15;;;;;;;5.70;1.30;;;23.60;65.20;;;;;;5043499;28;20957;-76
2022/03/13 00:17:43;;;;;;;4.10;1.60;;;23.60;65.80;;;;;;5047994;28;20287;-74
2022/03/13 00:20:11;;;;;;;5.20;1.10;;;23.70;65.30;;;;;;5054003;28;20179;-77
2022/03/13 00:22:39;;;;;;;5.90;1.60;;;23.80;65.10;;;;;;5050045;28;20180;-77
2022/03/13 00:25:11;;;;;;;3.87;1.30;;;23.90;65.30;;;;;;5046352;28;20255;-78
2022/03/13 00:27:38;;;;;;;6.30;1.50;;;23.90;66.70;;;;;;5052638;28;20171;-79
2022/03/13 00:30:07;;;;;;;5.43;1.60;;;24.00;67.10;;;;;;5048505;28;20175;-80
2022/03/13 00:32:34;;;;;;;5.73;2.30;;;24.20;67.30;;;;;;5045207;28;20179;-77
2022/03/13 00:35:03;;;;;;;4.73;2.23;;;24.10;66.80;;;;;;5043406;28;20212;-81
2022/03/13 00:37:31;;;;;;;10.40;5.77;;;24.10;67.20;;;;;;5047894;28;20173;-75
2022/03/13 00:40:00;;;;;;;10.60;3.50;;;24.20;66.60;;;;;;5048202;28;20536;-78
2022/03/13 00:42:28;;;;;;;3.50;1.40;;;23.90;66.40;;;;;;5041573;28;20252;-82
2022/03/13 00:44:56;;;;;;;5.67;1.53;;;23.90;67.00;;;;;;5034223;28;20660;-79
2022/03/13 00:47:23;;;;;;;2.93;1.50;;;24.10;66.70;;;;;;5050497;28;20194;-81
2022/03/13 00:49:51;;;;;;;6.77;1.40;;;24.30;66.00;;;;;;5050782;28;20181;-79
2022/03/13 00:52:19;;;;;;;3.63;1.27;;;24.40;65.10;;;;;;5044001;28;20517;-81
2022/03/13 00:54:46;;;;;;;4.97;1.70;;;24.20;65.60;;;;;;5052793;28;20215;-83
2022/03/13 00:57:14;;;;;;;3.93;1.37;;;24.10;66.10;;;;;;5045028;28;20538;-82
2022/03/13 00:59:41;;;;;;;7.07;3.53;;;24.20;65.60;;;;;;5048008;28;20182;-80
2022/03/13 01:02:10;;;;;;;6.20;1.97;;;24.10;65.70;;;;;;5041644;28;20582;-80
2022/03/13 01:04:38;;;;;;;4.77;1.63;;;23.90;66.00;;;;;;5041361;28;20199;-77
2022/03/13 01:07:06;;;;;;;5.93;1.73;;;23.80;65.10;;;;;;5037995;28;20238;-78
2022/03/13 01:09:34;;;;;;;8.00;2.13;;;23.90;66.00;;;;;;5049364;28;20175;-77
2022/03/13 01:12:02;;;;;;;5.67;2.10;;;23.90;66.50;;;;;;5047506;28;20609;-77
2022/03/13 01:14:32;;;;;;;10.97;5.73;;;23.80;66.20;;;;;;5051783;28;20219;-78
2022/03/13 01:17:06;;;;;;;4.63;2.07;;;23.70;66.70;;;;;;5050831;28;20199;-83
2022/03/13 01:19:33;;;;;;;9.23;6.00;;;23.60;67.50;;;;;;5038010;28;20621;-81
2022/03/13 01:22:01;;;;;;;7.47;3.50;;;23.50;68.60;;;;;;5052278;28;20207;-82
2022/03/13 01:24:46;;;;;;;8.23;2.90;;;23.40;69.30;;;;;;5053457;28;20267;-81
2022/03/13 01:27:16;;;;;;;6.00;2.10;;;23.30;69.30;;;;;;5054069;28;20184;-84
2022/03/13 01:29:45;;;;;;;10.97;4.13;;;23.30;69.40;;;;;;5053411;28;20176;-81
2022/03/13 01:32:14;;;;;;;7.17;1.90;;;23.20;69.20;;;;;;5049826;28;20530;-86
2022/03/13 01:34:43;;;;;;;9.47;1.70;;;23.10;70.40;;;;;;5050705;28;20273;-83
2022/03/13 01:37:27;;;;;;;5.13;1.77;;;23.10;70.60;;;;;;5051766;28;20542;-81
2022/03/13 01:39:55;;;;;;;10.40;3.50;;;23.10;70.30;;;;;;5054373;28;20191;-78
2022/03/13 01:42:23;;;;;;;3.83;2.00;;;23.20;69.30;;;;;;5053938;28;20694;-83
2022/03/13 01:44:50;;;;;;;6.53;1.50;;;23.20;68.30;;;;;;5052197;28;20183;-84
2022/03/13 01:47:18;;;;;;;4.10;1.60;;;23.20;67.20;;;;;;5046078;28;20192;-81
2022/03/13 01:49:47;;;;;;;5.20;1.73;;;23.30;67.70;;;;;;5039258;28;20656;-85
2022/03/13 01:52:16;;;;;;;6.37;1.77;;;23.40;67.70;;;;;;5052959;28;20180;-81
2022/03/13 01:54:45;;;;;;;6.40;1.73;;;23.90;67.20;;;;;;5039580;28;20215;-79
2022/03/13 01:57:19;;;;;;;11.73;4.13;;;24.00;66.40;;;;;;5041404;28;20188;-81
2022/03/13 01:59:54;;;;;;;5.40;2.37;;;24.10;66.80;;;;;;5035536;28;20712;-76
2022/03/13 02:02:22;;;;;;;7.70;2.23;;;24.10;66.70;;;;;;5034390;28;20627;-83
2022/03/13 02:04:54;;;;;;;9.97;3.27;;;24.00;67.20;;;;;;5049545;28;20262;-79
2022/03/13 02:07:26;;;;;;;5.87;1.87;;;24.30;66.50;;;;;;5052878;28;20212;-83
2022/03/13 02:09:55;;;;;;;5.83;1.70;;;24.20;66.20;;;;;;5034644;28;20176;-76
2022/03/13 02:12:26;;;;;;;9.73;2.40;;;24.50;65.50;;;;;;5043941;28;20254;-80
2022/03/13 02:14:54;;;;;;;5.13;1.67;;;24.40;65.80;;;;;;5050597;28;20215;-78
2022/03/13 02:17:33;;;;;;;10.00;6.07;;;24.00;65.00;;;;;;5053356;28;20548;-77
2022/03/13 02:20:01;;;;;;;5.33;2.40;;;24.10;64.90;;;;;;5051163;28;20207;-79
2022/03/13 02:22:30;;;;;;;5.37;1.53;;;24.30;65.60;;;;;;5052213;28;20252;-77
2022/03/13 02:24:57;;;;;;;4.37;1.30;;;24.40;67.30;;;;;;5052970;28;20256;-78
2022/03/13 02:27:29;;;;;;;7.67;1.33;;;25.20;64.20;;;;;;5050420;28;20654;-76
2022/03/13 02:29:57;;;;;;;3.07;1.27;;;25.80;64.00;;;;;;5046621;28;20195;-78
2022/03/13 02:32:24;;;;;;;4.03;1.70;;;25.80;65.00;;;;;;5052213;28;20214;-78
2022/03/13 02:34:54;;;;;;;3.53;1.03;;;25.40;65.60;;;;;;5051192;28;20219;-80
2022/03/13 02:37:42;;;;;;;4.00;1.00;;;24.80;67.60;;;;;;5048953;28;20507;-77
2022/03/13 02:40:21;;;;;;;6.97;1.30;;;24.40;63.70;;;;;;5050253;28;20544;-80
2022/03/13 02:42:49;;;;;;;4.73;3.50;;;24.30;63.80;;;;;;5041910;28;20200;-91
2022/03/13 02:45:32;;;;;;;8.03;4.37;;;24.30;63.60;;;;;;5050749;28;20191;-76
2022/03/13 02:48:05;;;;;;;5.13;1.13;;;24.30;64.00;;;;;;5047364;28;20234;-79
2022/03/13 02:50:34;;;;;;;3.47;0.93;;;23.80;64.70;;;;;;5048358;28;20237;-78
2022/03/13 02:53:01;;;;;;;3.57;0.80;;;23.80;64.60;;;;;;5051513;28;20202;-81
2022/03/13 02:55:29;;;;;;;6.20;1.10;;;23.80;66.10;;;;;;5050530;28;20231;-79
2022/03/13 02:57:57;;;;;;;5.13;0.93;;;23.80;67.20;;;;;;5052176;28;20192;-75
2022/03/13 03:00:44;;;;;;;3.27;0.90;;;23.70;68.20;;;;;;5049194;28;20222;-77
2022/03/13 03:03:19;;;;;;;3.23;1.60;;;23.70;70.00;;;;;;5048821;28;20184;-76
2022/03/13 03:05:47;;;;;;;4.43;2.30;;;23.70;71.00;;;;;;5048426;28;20544;-75
2022/03/13 03:08:14;;;;;;;2.80;1.20;;;23.60;71.70;;;;;;5050978;28;20253;-76
2022/03/13 03:10:43;;;;;;;3.07;1.20;;;23.40;71.90;;;;;;5050933;28;20539;-77
2022/03/13 03:13:11;;;;;;;5.23;3.03;;;23.50;72.50;;;;;;5051223;28;20184;-82
2022/03/13 03:15:40;;;;;;;1.97;1.10;;;23.60;72.70;;;;;;5052060;28;20310;-84
2022/03/13 03:18:09;;;;;;;1.53;0.80;;;23.80;71.80;;;;;;5049407;28;20681;-78
2022/03/13 03:20:38;;;;;;;2.30;0.80;;;23.90;70.60;;;;;;5044804;28;20211;-77
2022/03/13 03:23:06;;;;;;;1.13;0.70;;;24.20;70.00;;;;;;5048357;28;20187;-79
2022/03/13 03:25:33;;;;;;;1.90;0.83;;;24.50;68.50;;;;;;5060519;28;20184;-80
2022/03/13 03:28:01;;;;;;;1.97;0.90;;;24.60;68.00;;;;;;5048693;28;20195;-78
2022/03/13 03:30:30;;;;;;;2.33;0.80;;;24.60;67.70;;;;;;5046950;28;20194;-79
2022/03/13 03:33:01;;;;;;;2.70;1.00;;;24.50;67.80;;;;;;5049198;28;20219;-83
2022/03/13 03:35:28;;;;;;;1.20;0.70;;;24.50;67.40;;;;;;5051540;28;20327;-77
2022/03/13 03:37:59;;;;;;;2.43;0.90;;;24.70;66.50;;;;;;5049870;28;20668;-78
2022/03/13 03:40:30;;;;;;;2.73;1.23;;;24.70;65.90;;;;;;5052315;28;20650;-77
2022/03/13 03:43:00;;;;;;;3.63;1.70;;;24.70;65.50;;;;;;5047548;28;20192;-78
2022/03/13 03:45:28;;;;;;;4.60;1.30;;;24.60;66.40;;;;;;5052875;28;20188;-79
2022/03/13 03:47:56;;;;;;;7.80;2.97;;;24.60;65.10;;;;;;5050836;28;20184;-78
2022/03/13 03:50:23;;;;;;;2.70;1.20;;;24.60;66.40;;;;;;5050928;28;20665;-78
2022/03/13 03:52:54;;;;;;;5.70;1.90;;;24.50;66.60;;;;;;5037765;28;20187;-79
2022/03/13 03:55:23;;;;;;;5.17;3.03;;;24.40;66.20;;;;;;5053321;28;20203;-77
2022/03/13 03:57:51;;;;;;;3.87;1.07;;;24.60;65.30;;;;;;5046927;28;20184;-80
2022/03/13 04:00:19;;;;;;;4.57;1.00;;;24.60;65.40;;;;;;5055044;28;20179;-84
2022/03/13 04:02:46;;;;;;;8.13;1.17;;;24.80;64.50;;;;;;5056209;28;20721;-79
2022/03/13 04:05:13;;;;;;;2.17;0.93;;;24.80;63.50;;;;;;5056568;28;20251;-79
2022/03/13 04:07:41;;;;;;;6.00;1.00;;;25.10;63.30;;;;;;5055598;28;20622;-76
2022/03/13 04:10:11;;;;;;;2.60;0.80;;;25.00;63.30;;;;;;5058068;28;20172;-79
2022/03/13 04:12:39;;;;;;;4.70;1.07;;;25.00;63.20;;;;;;5056787;28;20183;-78
2022/03/13 04:15:07;;;;;;;4.70;1.33;;;24.80;64.20;;;;;;5055531;28;20211;-79
2022/03/13 04:17:35;;;;;;;4.10;1.37;;;24.80;65.20;;;;;;5057971;28;20179;-77
2022/03/13 04:20:03;;;;;;;2.93;1.07;;;25.00;63.90;;;;;;5055986;28;20180;-79
2022/03/13 04:22:31;;;;;;;2.30;0.97;;;24.90;64.50;;;;;;5053920;28;20190;-80
2022/03/13 04:24:58;;;;;;;4.83;1.10;;;25.10;64.30;;;;;;5055887;28;20169;-83
2022/03/13 04:27:25;;;;;;;4.60;0.90;;;24.80;64.20;;;;;;5055650;28;20657;-79
2022/03/13 04:29:53;;;;;;;5.07;1.10;;;25.10;63.10;;;;;;5054585;28;20374;-81
2022/03/13 04:32:22;;;;;;;4.90;1.10;;;25.00;65.10;;;;;;5055466;28;20217;-83
2022/03/13 04:34:50;;;;;;;4.50;0.80;;;25.00;65.60;;;;;;5055408;28;20294;-79
2022/03/13 04:37:18;;;;;;;2.23;1.00;;;24.60;66.30;;;;;;5054957;28;20187;-82
2022/03/13 04:39:50;;;;;;;4.10;1.00;;;24.60;65.80;;;;;;5056016;28;20176;-82
2022/03/13 04:42:18;;;;;;;8.70;1.40;;;24.70;65.90;;;;;;5055303;28;20176;-82
2022/03/13 04:44:45;;;;;;;3.03;1.10;;;24.80;64.60;;;;;;5055370;28;20642;-84
2022/03/13 04:47:13;;;;;;;4.00;1.23;;;25.00;63.30;;;;;;5055847;28;20733;-82
2022/03/13 04:49:41;;;;;;;3.53;1.17;;;25.10;62.90;;;;;;5055915;28;20179;-80
2022/03/13 04:52:09;;;;;;;4.33;1.10;;;25.60;61.70;;;;;;5048152;28;20191;-83
2022/03/13 04:54:36;;;;;;;5.37;1.20;;;25.50;63.00;;;;;;5035538;28;20240;-82
2022/03/13 04:57:04;;;;;;;5.90;1.30;;;25.70;63.40;;;;;;5044961;28;20176;-82
2022/03/13 04:59:31;;;;;;;6.43;1.77;;;25.70;63.20;;;;;;5055408;28;20180;-85
2022/03/13 05:02:00;;;;;;;2.90;1.00;;;25.80;63.30;;;;;;5055148;28;20563;-83
2022/03/13 05:04:27;;;;;;;5.33;1.07;;;25.70;63.40;;;;;;5055142;28;20180;-83
2022/03/13 05:06:56;;;;;;;5.47;1.37;;;26.00;61.80;;;;;;5052691;28;20575;-81
2022/03/13 05:09:23;;;;;;;3.00;1.10;;;25.70;62.30;;;;;;5054979;28;20184;-86
2022/03/13 05:11:51;;;;;;;5.93;1.30;;;25.20;62.50;;;;;;5055287;28;20168;-83
2022/03/13 05:14:18;;;;;;;5.50;1.20;;;24.60;65.40;;;;;;5055123;28;20238;-82
2022/03/13 05:16:45;;;;;;;6.20;1.00;;;24.70;65.70;;;;;;5053854;28;20179;-82
2022/03/13 05:19:13;;;;;;;6.23;1.07;;;24.60;65.90;;;;;;5055392;28;20176;-84
2022/03/13 05:21:41;;;;;;;4.57;1.10;;;24.50;67.80;;;;;;5054702;28;20718;-87
2022/03/13 05:24:08;;;;;;;5.63;1.07;;;24.30;68.30;;;;;;5054768;28;20191;-84
2022/03/13 05:26:36;;;;;;;5.13;1.00;;;24.30;68.30;;;;;;5055028;28;20164;-82
2022/03/13 05:29:03;;;;;;;3.90;1.10;;;24.30;68.30;;;;;;5048304;28;20268;-82
2022/03/13 05:31:31;;;;;;;6.23;1.10;;;24.40;68.70;;;;;;5034939;28;20181;-84
2022/03/13 05:33:58;;;;;;;4.57;1.13;;;24.70;67.90;;;;;;5052058;28;20298;-82
2022/03/13 05:36:26;;;;;;;6.47;1.47;;;24.70;68.60;;;;;;5053478;28;20191;-86
2022/03/13 05:38:53;;;;;;;4.17;0.90;;;24.90;66.70;;;;;;5053724;28;20176;-85
2022/03/13 05:41:22;;;;;;;2.93;0.70;;;25.50;64.30;;;;;;5039942;28;20172;-82
2022/03/13 05:43:51;;;;;;;4.83;0.80;;;25.90;61.90;;;;;;5052561;28;20180;-82
2022/03/13 05:46:18;;;;;;;1.83;0.70;;;25.90;61.10;;;;;;5054472;28;20214;-78
2022/03/13 05:48:45;;;;;;;2.17;0.73;;;25.70;61.20;;;;;;5054453;28;20199;-81
2022/03/13 05:51:13;;;;;;;3.47;0.73;;;25.50;61.60;;;;;;5054674;28;20180;-79
2022/03/13 05:53:40;;;;;;;2.63;0.70;;;25.80;60.50;;;;;;5055037;28;20630;-76
2022/03/13 05:56:07;;;;;;;2.30;0.63;;;25.00;62.50;;;;;;5054066;28;20234;-81
2022/03/13 05:58:35;;;;;;;2.07;0.80;;;25.00;62.60;;;;;;5054736;28;20175;-81
2022/03/13 06:01:08;;;;;;;2.57;0.80;;;24.90;63.40;;;;;;5054078;28;20587;-84
2022/03/13 06:03:38;;;;;;;2.43;0.87;;;25.50;62.50;;;;;;5041996;28;20536;-81
2022/03/13 06:06:06;;;;;;;4.73;1.00;;;25.40;61.30;;;;;;5053559;28;20310;-85
2022/03/13 06:08:34;;;;;;;4.63;1.23;;;25.10;61.70;;;;;;5053646;28;20176;-79
2022/03/13 06:11:01;;;;;;;3.03;0.80;;;24.90;61.80;;;;;;5054554;28;20203;-87
2022/03/13 06:13:29;;;;;;;1.43;0.70;;;25.70;59.20;;;;;;5053833;28;20203;-80
2022/03/13 06:16:00;;;;;;;2.93;1.10;;;26.30;57.90;;;;;;5053173;28;20180;-81
2022/03/13 06:18:28;;;;;;;2.70;0.80;;;27.40;54.60;;;;;;5054178;28;20176;-84
2022/03/13 06:20:56;;;;;;;4.23;1.23;;;27.20;54.70;;;;;;5053627;28;20184;-84
2022/03/13 06:23:24;;;;;;;3.53;0.80;;;27.00;55.50;;;;;;5053705;28;20247;-82
2022/03/13 06:25:51;;;;;;;4.60;0.87;;;26.30;57.20;;;;;;5054132;28;20622;-80
2022/03/13 06:28:21;;;;;;;3.73;0.70;;;26.20;57.80;;;;;;5053475;28;20251;-81
2022/03/13 06:30:49;;;;;;;3.73;1.10;;;26.30;58.20;;;;;;5053467;28;20180;-79
2022/03/13 06:33:16;;;;;;;4.33;0.93;;;26.00;59.90;;;;;;5051837;28;20187;-77
2022/03/13 06:35:43;;;;;;;1.33;0.60;;;26.20;58.30;;;;;;5052766;28;20280;-81
2022/03/13 06:38:11;;;;;;;4.33;0.80;;;26.70;56.70;;;;;;5053197;28;20179;-81
2022/03/13 06:40:38;;;;;;;2.67;1.10;;;27.00;56.30;;;;;;5051775;28;20191;-82
2022/03/13 06:43:06;;;;;;;3.00;0.53;;;27.00;55.50;;;;;;5052245;28;20279;-83
2022/03/13 06:45:34;;;;;;;7.10;0.80;;;27.20;55.40;;;;;;5053329;28;20222;-81
2022/03/13 06:48:01;;;;;;;3.27;0.90;;;27.50;54.80;;;;;;5052833;28;20672;-80
2022/03/13 06:50:28;;;;;;;2.90;0.90;;;27.90;53.50;;;;;;5053111;28;20531;-83
2022/03/13 06:52:56;;;;;;;4.43;0.95;;;27.80;55.00;;;;;;5052497;28;20172;-85
2022/03/13 06:55:24;;;;;;;2.10;0.83;;;27.40;56.00;;;;;;5052885;28;20211;-84
2022/03/13 06:57:51;;;;;;;3.77;0.80;;;27.30;56.60;;;;;;5053571;28;20195;-86
2022/03/13 07:00:20;;;;;;;2.83;1.00;;;27.20;56.80;;;;;;5052955;28;20221;-83
2022/03/13 07:02:47;;;;;;;2.83;0.90;;;27.70;55.90;;;;;;5052778;28;20620;-80
2022/03/13 07:05:15;;;;;;;3.83;0.90;;;27.30;57.20;;;;;;5052809;28;20172;-79
2022/03/13 07:07:42;;;;;;;4.67;1.20;;;26.90;58.60;;;;;;5047283;28;20290;-87
2022/03/13 07:10:11;;;;;;;5.37;1.10;;;26.30;61.40;;;;;;5052874;28;20176;-81
2022/03/13 07:12:40;;;;;;;5.87;1.40;;;25.20;64.70;;;;;;5052492;28;20172;-85
2022/03/13 07:15:13;;;;;;;3.60;0.97;;;24.50;66.90;;;;;;5052755;28;20229;-83
2022/03/13 07:17:44;;;;;;;3.73;0.80;;;24.60;66.10;;;;;;5052899;28;20186;-83
2022/03/13 07:20:13;;;;;;;2.23;1.20;;;24.60;66.70;;;;;;5052863;28;20258;-85
2022/03/13 07:22:42;;;;;;;4.60;1.30;;;24.60;66.00;;;;;;5052473;28;20613;-83
2022/03/13 07:25:10;;;;;;;4.50;1.37;;;24.40;68.00;;;;;;5052831;28;20172;-81
2022/03/13 07:27:37;;;;;;;5.93;1.67;;;24.60;67.60;;;;;;5053177;28;20211;-84
2022/03/13 07:30:14;;;;;;;4.27;1.10;;;24.50;67.90;;;;;;5050685;28;20246;-82
2022/03/13 07:32:42;;;;;;;5.83;1.30;;;24.10;69.40;;;;;;5050431;28;20180;-82
2022/03/13 07:35:10;;;;;;;5.57;1.60;;;23.60;70.80;;;;;;5032262;28;20625;-82
2022/03/13 07:37:38;;;;;;;6.43;1.63;;;23.50;71.30;;;;;;5032250;28;20654;-86
2022/03/13 07:40:07;;;;;;;5.57;1.20;;;23.30;71.00;;;;;;5032676;28;20568;-87
2022/03/13 07:42:34;;;;;;;3.17;1.10;;;23.20;71.30;;;;;;5032488;28;20262;-87
2022/03/13 07:45:02;;;;;;;4.67;1.17;;;23.30;71.60;;;;;;5032592;28;20242;-84
2022/03/13 07:47:30;;;;;;;6.40;1.47;;;23.20;71.50;;;;;;5032786;28;20839;-84
2022/03/13 07:49:58;;;;;;;4.50;1.07;;;22.90;72.10;;;;;;5032532;28;20638;-78
2022/03/13 07:52:25;;;;;;;4.93;0.93;;;22.80;72.40;;;;;;5032391;28;20179;-80
2022/03/13 07:54:53;;;;;;;3.50;0.80;;;22.80;72.10;;;;;;5032420;28;20215;-85
2022/03/13 07:57:20;;;;;;;3.17;0.97;;;22.80;72.50;;;;;;5033028;28;20704;-79
2022/03/13 07:59:48;;;;;;;2.10;1.10;;;22.60;72.80;;;;;;5033092;28;20177;-81
2022/03/13 08:02:16;;;;;;;4.47;1.10;;;22.50;72.80;;;;;;5036106;28;20196;-82
2022/03/13 08:04:43;;;;;;;2.27;1.10;;;22.40;73.20;;;;;;5049616;28;20192;-81
2022/03/13 08:07:11;;;;;;;5.23;1.40;;;22.60;73.00;;;;;;5051854;28;20243;-78
2022/03/13 08:09:39;;;;;;;5.60;1.47;;;22.50;72.40;;;;;;5051911;28;20255;-85
2022/03/13 08:12:07;;;;;;;3.53;1.30;;;22.30;72.70;;;;;;5052762;28;20188;-79
2022/03/13 08:14:34;;;;;;;3.67;1.37;;;22.40;73.20;;;;;;5052320;28;20501;-79
2022/03/13 08:17:02;;;;;;;3.77;1.30;;;22.40;73.40;;;;;;5052868;28;20175;-83
2022/03/13 08:19:29;;;;;;;8.03;1.30;;;22.40;73.40;;;;;;5052572;28;20237;-81
2022/03/13 08:21:56;;;;;;;6.83;2.53;;;22.40;73.10;;;;;;5051021;28;20177;-84
2022/03/13 08:24:24;;;;;;;3.77;1.60;;;22.40;72.70;;;;;;5052461;28;20232;-80
2022/03/13 08:26:51;;;;;;;5.80;1.23;;;22.30;73.00;;;;;;5052182;28;20188;-78
2022/03/13 08:29:19;;;;;;;4.03;1.50;;;22.30;73.30;;;;;;5052168;28;20257;-83
2022/03/13 08:31:46;;;;;;;6.17;1.40;;;22.20;73.40;;;;;;5053063;28;20305;-81
2022/03/13 08:34:13;;;;;;;6.10;1.40;;;22.20;74.40;;;;;;5055896;28;20218;-77
2022/03/13 08:36:47;;;;;;;3.13;0.90;;;22.10;75.30;;;;;;5056037;28;20180;-80
2022/03/13 08:39:14;;;;;;;6.00;1.17;;;22.10;76.10;;;;;;5054771;28;20423;-77
2022/03/13 08:41:42;;;;;;;4.03;1.00;;;21.90;77.40;;;;;;5055905;28;20183;-78
2022/03/13 08:44:09;;;;;;;5.57;1.83;;;21.80;77.70;;;;;;5056663;28;20179;-76
2022/03/13 08:46:38;;;;;;;3.77;1.13;;;21.80;77.60;;;;;;5055886;28;20210;-84
2022/03/13 08:49:07;;;;;;;3.43;1.03;;;21.70;77.20;;;;;;5055867;28;20203;-77
2022/03/13 08:51:34;;;;;;;4.37;1.30;;;21.80;77.10;;;;;;5056038;28;20178;-86
2022/03/13 08:54:01;;;;;;;3.63;1.10;;;21.80;76.70;;;;;;5054018;28;20247;-77
2022/03/13 08:56:29;;;;;;;2.60;1.20;;;21.80;76.90;;;;;;5055817;28;20190;-80
2022/03/13 08:58:57;;;;;;;3.20;1.10;;;21.80;76.20;;;;;;5055332;28;20184;-83
2022/03/13 09:01:25;;;;;;;6.43;1.30;;;21.80;75.90;;;;;;5055966;28;20208;-80
2022/03/13 09:03:52;;;;;;;4.60;1.30;;;21.70;75.60;;;;;;5054375;28;20241;-80
2022/03/13 09:06:20;;;;;;;4.03;1.37;;;21.70;75.60;;;;;;5055376;28;20224;-84
2022/03/13 09:08:47;;;;;;;4.10;1.40;;;21.80;75.00;;;;;;5053440;28;20275;-85
2022/03/13 09:11:15;;;;;;;3.13;1.20;;;21.80;75.50;;;;;;5055437;28;20183;-85
2022/03/13 09:13:43;;;;;;;6.77;2.07;;;21.80;75.20;;;;;;5053745;28;20183;-81
2022/03/13 09:16:10;;;;;;;5.10;1.40;;;21.80;75.20;;;;;;5055305;28;20176;-79
2022/03/13 09:18:38;;;;;;;5.77;1.50;;;21.80;74.10;;;;;;5055062;28;20198;-78
2022/03/13 09:21:06;;;;;;;3.60;1.13;;;21.80;73.50;;;;;;5055164;28;20176;-78
2022/03/13 09:23:33;;;;;;;3.90;1.17;;;21.80;73.30;;;;;;5054907;28;20207;-82
2022/03/13 09:26:01;;;;;;;6.67;1.50;;;21.80;73.60;;;;;;5055039;28;20182;-84
2022/03/13 09:28:29;;;;;;;2.70;1.33;;;21.80;72.80;;;;;;5053972;28;20171;-81
2022/03/13 09:30:58;;;;;;;4.87;1.40;;;21.80;72.70;;;;;;5054919;28;20206;-83
2022/03/13 09:33:27;;;;;;;3.37;1.40;;;21.90;72.40;;;;;;5054492;28;20275;-85
2022/03/13 09:35:54;;;;;;;8.37;1.30;;;21.80;72.60;;;;;;5054726;28;20293;-84
2022/03/13 09:38:22;;;;;;;4.57;1.40;;;21.80;72.00;;;;;;5054723;28;20187;-84
2022/03/13 09:40:49;;;;;;;4.77;1.40;;;21.90;72.50;;;;;;5054452;28;20176;-83
2022/03/13 09:43:20;;;;;;;4.00;1.23;;;21.80;72.60;;;;;;5053808;28;20180;-84
2022/03/13 09:45:48;;;;;;;3.93;1.17;;;21.90;72.90;;;;;;5054972;28;20275;-84
2022/03/13 09:48:18;;;;;;;4.23;1.40;;;21.90;73.20;;;;;;5049448;28;20180;-80
2022/03/13 09:50:45;;;;;;;3.57;1.33;;;21.90;73.40;;;;;;5044416;28;20226;-82
2022/03/13 09:53:13;;;;;;;3.17;1.30;;;21.90;73.80;;;;;;5041697;28;20207;-80
2022/03/13 09:55:41;;;;;;;5.17;1.37;;;21.80;73.50;;;;;;5044592;28;20216;-78
2022/03/13 09:58:08;;;;;;;4.93;1.37;;;21.80;73.80;;;;;;5047235;28;20172;-81
2022/03/13 10:00:37;;;;;;;4.37;1.23;;;21.80;74.00;;;;;;5061870;28;20180;-80
2022/03/13 10:03:08;;;;;;;4.30;1.13;;;21.80;74.00;;;;;;5048510;28;20172;-78
2022/03/13 10:05:46;;;;;;;3.77;1.40;;;21.80;74.20;;;;;;5053567;28;20654;-78
2022/03/13 10:08:15;;;;;;;3.80;1.60;;;21.80;74.70;;;;;;5046954;28;20188;-81
2022/03/13 10:10:45;;;;;;;3.93;1.10;;;21.80;74.70;;;;;;5041666;28;20179;-82
2022/03/13 10:13:14;;;;;;;5.37;1.00;;;21.90;74.40;;;;;;5040932;28;20176;-81
2022/03/13 10:15:44;;;;;;;2.07;1.00;;;21.90;74.40;;;;;;5051009;28;20215;-78
2022/03/13 10:18:19;;;;;;;3.07;1.20;;;21.90;74.70;;;;;;5060043;28;20210;-76
2022/03/13 10:20:48;;;;;;;3.53;1.33;;;21.80;74.70;;;;;;5058715;28;20183;-78
2022/03/13 10:23:18;;;;;;;7.53;2.70;;;21.80;75.20;;;;;;5052716;28;20631;-79
2022/03/13 10:25:48;;;;;;;11.17;2.27;;;21.80;75.70;;;;;;5043449;28;20234;-80
2022/03/13 10:28:33;;;;;;;6.13;1.67;;;21.70;76.10;;;;;;5034118;28;20200;-80
2022/03/13 10:31:00;;;;;;;3.37;1.30;;;21.60;76.00;;;;;;5040164;28;20172;-78
2022/03/13 10:33:29;;;;;;;5.63;1.30;;;21.60;76.00;;;;;;5053955;28;20188;-77
2022/03/13 10:36:17;;;;;;;3.77;1.10;;;21.50;76.00;;;;;;5045519;28;20304;-81
2022/03/13 10:38:46;;;;;;;3.73;1.50;;;21.50;76.20;;;;;;5047532;28;20198;-77
2022/03/13 10:41:14;;;;;;;3.50;1.30;;;21.50;76.70;;;;;;5044218;28;20176;-78
2022/03/13 10:43:52;;;;;;;4.10;1.87;;;21.40;76.80;;;;;;5038487;28;20237;-81
2022/03/13 10:46:27;;;;;;;5.80;1.40;;;21.30;76.90;;;;;;5053150;28;20171;-79
2022/03/13 10:48:55;;;;;;;4.67;1.23;;;21.30;76.90;;;;;;5039239;28;20183;-83
2022/03/13 10:51:47;;;;;;;1.90;1.10;;;21.20;77.30;;;;;;5053670;28;20172;-83
2022/03/13 10:54:32;;;;;;;5.67;1.10;;;21.20;77.30;;;;;;5052997;28;20208;-78
2022/03/13 10:57:19;;;;;;;3.73;1.13;;;21.10;77.80;;;;;;5048265;28;20195;-81
2022/03/13 11:00:05;;;;;;;4.07;1.37;;;21.10;78.40;;;;;;5036644;28;20219;-82
2022/03/13 11:02:33;;;;;;;3.10;1.00;;;21.10;78.30;;;;;;5036738;28;20208;-83
2022/03/13 11:05:00;;;;;;;4.23;1.30;;;21.10;78.50;;;;;;5052393;28;20180;-82
2022/03/13 11:07:28;;;;;;;3.50;1.10;;;21.10;78.40;;;;;;5052997;28;20216;-83
2022/03/13 11:09:56;;;;;;;3.57;1.13;;;21.00;78.50;;;;;;5052528;28;20513;-82
2022/03/13 11:12:26;;;;;;;2.77;1.20;;;21.00;78.90;;;;;;5046562;28;20216;-77
2022/03/13 11:14:55;;;;;;;3.43;1.40;;;20.90;79.10;;;;;;5047220;28;20208;-82
2022/03/13 11:17:32;;;;;;;3.17;1.03;;;20.90;79.20;;;;;;5053308;28;20630;-83
2022/03/13 11:20:02;;;;;;;4.43;1.77;;;20.90;79.10;;;;;;5053000;28;20189;-82
2022/03/13 11:22:30;;;;;;;3.27;1.20;;;20.80;79.10;;;;;;5052837;28;20183;-82
2022/03/13 11:25:08;;;;;;;2.53;0.90;;;20.80;79.40;;;;;;5052749;28;20183;-82
2022/03/13 11:27:38;;;;;;;2.77;1.00;;;20.80;79.60;;;;;;5052900;28;20178;-81
2022/03/13 11:30:08;;;;;;;3.20;1.13;;;20.80;80.00;;;;;;5052732;28;20179;-82
2022/03/13 11:32:41;;;;;;;3.50;1.23;;;20.80;80.20;;;;;;5048698;28;20246;-81
2022/03/13 11:35:15;;;;;;;5.27;1.40;;;20.80;80.20;;;;;;5043938;28;20215;-83
2022/03/13 11:37:47;;;;;;;4.20;1.50;;;20.80;80.20;;;;;;5053261;28;20182;-83
2022/03/13 11:40:17;;;;;;;5.33;1.20;;;20.70;80.50;;;;;;5051620;28;20210;-84
2022/03/13 11:42:54;;;;;;;3.17;1.10;;;20.70;81.00;;;;;;5051517;28;20188;-81
2022/03/13 11:45:29;;;;;;;5.13;1.43;;;20.60;81.30;;;;;;5051693;28;20520;-81
2022/03/13 11:48:06;;;;;;;4.63;1.30;;;20.60;81.40;;;;;;5052936;28;20198;-82
2022/03/13 11:50:51;;;;;;;4.53;1.20;;;20.50;81.30;;;;;;5052543;28;20195;-82
2022/03/13 11:53:21;;;;;;;2.50;1.20;;;20.50;81.80;;;;;;5049090;28;20187;-81
2022/03/13 11:56:07;;;;;;;2.53;1.20;;;20.40;82.00;;;;;;5052350;28;20302;-83
2022/03/13 11:58:46;;;;;;;3.97;1.57;;;20.30;81.90;;;;;;5051307;28;20193;-78
2022/03/13 12:01:35;;;;;;;3.23;1.17;;;20.30;82.50;;;;;;5052427;28;20184;-81
2022/03/13 12:04:03;;;;;;;4.87;1.40;;;20.30;82.90;;;;;;5041818;28;20238;-81
2022/03/13 12:06:56;;;;;;;2.20;1.10;;;20.30;82.70;;;;;;5037649;28;20327;-81
2022/03/13 12:09:44;;;;;;;3.30;1.10;;;20.30;82.50;;;;;;5055562;28;20172;-79
2022/03/13 12:12:17;;;;;;;3.70;1.17;;;20.30;82.80;;;;;;5056321;28;20168;-83
2022/03/13 12:15:02;;;;;;;4.03;1.30;;;20.30;82.70;;;;;;5055365;28;20220;-83
2022/03/13 12:17:45;;;;;;;3.90;1.60;;;20.30;82.80;;;;;;5036509;28;20188;-84
2022/03/13 12:20:28;;;;;;;3.53;1.37;;;20.30;82.90;;;;;;5042745;28;20298;-83
2022/03/13 12:22:59;;;;;;;4.43;1.23;;;20.30;82.40;;;;;;5055611;28;20642;-83
2022/03/13 12:25:32;;;;;;;3.83;1.60;;;20.30;82.80;;;;;;5055603;28;20306;-83
2022/03/13 12:28:01;;;;;;;4.53;1.50;;;20.30;82.70;;;;;;5055635;28;20180;-83
2022/03/13 12:30:30;;;;;;;8.43;2.00;;;20.30;82.80;;;;;;5055824;28;20164;-80
2022/03/13 12:33:04;;;;;;;5.07;1.23;;;20.30;83.00;;;;;;5055204;28;20172;-83
2022/03/13 12:35:32;;;;;;;2.50;1.40;;;20.20;83.00;;;;;;5045690;28;20361;-83
2022/03/13 12:38:01;;;;;;;3.00;1.20;;;20.20;83.60;;;;;;5055595;28;20522;-82
2022/03/13 12:40:30;;;;;;;4.13;1.63;;;20.20;83.70;;;;;;5055750;28;20187;-84
2022/03/13 12:42:59;;;;;;;6.83;1.67;;;20.20;83.40;;;;;;5055301;28;20172;-83
2022/03/13 12:45:28;;;;;;;5.10;1.60;;;20.10;83.10;;;;;;5055827;28;20180;-82
2022/03/13 12:48:03;;;;;;;5.60;2.00;;;20.10;83.30;;;;;;5056076;28;20183;-83
2022/03/13 12:50:38;;;;;;;3.37;1.47;;;20.10;83.50;;;;;;5055867;28;20517;-83
2022/03/13 12:53:05;;;;;;;2.70;1.30;;;20.20;83.50;;;;;;5054747;28;20547;-82
2022/03/13 12:55:33;;;;;;;5.97;1.50;;;20.10;83.70;;;;;;5055694;28;20229;-83
2022/03/13 12:58:02;;;;;;;3.57;1.50;;;20.20;83.70;;;;;;5055221;28;20200;-78